Time;durP1;ratioP1;P1;durP2;ratioP2;P2;SDS_P1;SDS_P2;PMS_P1;PMS_P2;Temp;Humidity;BMP_temperature;BMP_pressure;BME280_temperature;BME280_humidity;BME280_pressure;Samples;Min_cycle;Max_cycle;Signal;HPM_P1;HPM_P2
2021/12/09 00:01:31;;;;;;;40.03;19.50;;;;;;;3.52;81.96;96756.34;5068047;28;20686;-61
2021/12/09 00:04:05;;;;;;;41.30;20.30;;;;;;;3.41;81.86;96742.94;5069304;28;20766;-62
2021/12/09 00:06:32;;;;;;;32.77;18.83;;;;;;;3.28;82.84;96745.75;5067571;28;20225;-61
2021/12/09 00:09:16;;;;;;;41.07;20.47;;;;;;;3.27;82.99;96751.78;5069297;28;20243;-61
2021/12/09 00:11:45;;;;;;;39.30;19.27;;;;;;;3.19;83.35;96740.03;5069087;28;20191;-61
2021/12/09 00:14:17;;;;;;;43.73;21.80;;;;;;;3.38;82.13;96756.63;5067835;28;20234;-61
2021/12/09 00:16:44;;;;;;;47.53;22.47;;;;;;;3.40;82.00;96756.63;5069226;28;20232;-61
2021/12/09 00:19:12;;;;;;;47.00;23.47;;;;;;;3.41;81.98;96763.41;5067603;28;20197;-61
2021/12/09 00:21:39;;;;;;;54.17;24.03;;;;;;;3.42;82.03;96757.41;5069301;28;20589;-61
2021/12/09 00:24:06;;;;;;;46.83;23.23;;;;;;;3.50;81.80;96760.66;5068066;28;20823;-62
2021/12/09 00:26:33;;;;;;;44.33;24.00;;;;;;;3.54;81.92;96765.66;5068681;28;20776;-61
2021/12/09 00:29:00;;;;;;;37.60;20.73;;;;;;;3.67;81.85;96766.22;5068953;28;20286;-60
2021/12/09 00:31:27;;;;;;;35.63;18.87;;;;;;;3.60;81.84;96777.47;5067540;28;20205;-63
2021/12/09 00:33:56;;;;;;;30.63;17.00;;;;;;;3.51;81.83;96770.84;5069356;28;20197;-61
2021/12/09 00:36:27;;;;;;;27.27;16.27;;;;;;;3.45;81.86;96759.91;5067677;28;20236;-60
2021/12/09 00:38:55;;;;;;;27.27;17.37;;;;;;;3.41;81.30;96758.28;5058433;28;20698;-61
2021/12/09 00:41:23;;;;;;;32.83;18.00;;;;;;;3.16;82.37;96763.94;5047706;28;20280;-61
2021/12/09 00:43:50;;;;;;;29.10;16.57;;;;;;;3.26;82.38;96770.53;5048101;28;20259;-60
2021/12/09 00:46:17;;;;;;;25.77;14.27;;;;;;;3.32;82.57;96787.47;5048533;28;20237;-61
2021/12/09 00:48:45;;;;;;;29.43;16.67;;;;;;;3.33;82.47;96786.59;5047117;28;20229;-61
2021/12/09 00:51:13;;;;;;;23.07;14.83;;;;;;;3.15;81.81;96792.94;5048686;28;20639;-61
2021/12/09 00:53:40;;;;;;;23.83;14.10;;;;;;;3.15;82.50;96812.59;5046855;28;20293;-60
2021/12/09 00:56:09;;;;;;;20.83;12.77;;;;;;;3.08;82.13;96811.88;5048777;28;20288;-61
2021/12/09 00:58:39;;;;;;;23.70;13.77;;;;;;;3.03;82.82;96808.53;5047517;28;20194;-60
2021/12/09 01:01:07;;;;;;;26.57;15.83;;;;;;;2.70;82.70;96819.41;5047921;28;20376;-61
2021/12/09 01:03:37;;;;;;;27.47;16.17;;;;;;;2.43;83.25;96820.75;5048312;28;20201;-62
2021/12/09 01:06:04;;;;;;;22.63;14.13;;;;;;;2.39;84.62;96819.13;5046661;28;20213;-61
2021/12/09 01:08:41;;;;;;;22.67;13.43;;;;;;;2.33;84.81;96823.50;5048480;28;20244;-61
2021/12/09 01:11:10;;;;;;;23.40;14.27;;;;;;;2.16;86.89;96817.84;5046688;28;20205;-59
2021/12/09 01:13:37;;;;;;;27.73;16.63;;;;;;;1.95;88.13;96811.38;5048194;28;20225;-61
2021/12/09 01:16:05;;;;;;;27.50;15.53;;;;;;;1.87;87.92;96814.91;5046872;28;20588;-62
2021/12/09 01:18:34;;;;;;;26.03;15.63;;;;;;;1.74;89.09;96805.75;5047550;28;20189;-61
2021/12/09 01:21:03;;;;;;;24.17;14.77;;;;;;;1.76;89.34;96804.03;5048380;28;20307;-63
2021/12/09 01:23:31;;;;;;;27.43;15.83;;;;;;;1.79;90.53;96799.75;5046289;28;20190;-63
2021/12/09 01:26:03;;;;;;;28.43;15.53;;;;;;;1.95;89.21;96806.28;5048019;28;20231;-62
2021/12/09 01:28:39;;;;;;;30.73;17.53;;;;;;;1.97;89.85;96798.59;5046347;28;20633;-62
2021/12/09 01:31:08;;;;;;;28.33;16.43;;;;;;;1.96;89.49;96796.91;5047911;28;20579;-61
2021/12/09 01:33:36;;;;;;;29.23;16.90;;;;;;;2.03;89.33;96795.94;5047653;28;20197;-62
2021/12/09 01:36:06;;;;;;;30.47;17.03;;;;;;;2.17;89.14;96797.38;5046708;28;20280;-60
2021/12/09 01:38:34;;;;;;;30.87;16.93;;;;;;;2.22;88.23;96785.41;5047825;28;20206;-60
2021/12/09 01:41:02;;;;;;;27.53;17.00;;;;;;;2.19;88.87;96784.59;5046087;28;20197;-62
2021/12/09 01:43:30;;;;;;;31.73;18.70;;;;;;;2.02;89.35;96771.28;5047583;28;20243;-61
2021/12/09 01:46:14;;;;;;;27.87;16.33;;;;;;;2.11;89.35;96787.28;5046583;28;20251;-61
2021/12/09 01:48:45;;;;;;;32.33;18.33;;;;;;;2.33;88.02;96791.13;5046762;28;20284;-61
2021/12/09 01:51:13;;;;;;;31.57;17.17;;;;;;;2.51;87.31;96782.31;5047618;28;20197;-61
2021/12/09 01:53:40;;;;;;;29.83;17.27;;;;;;;2.63;87.01;96792.31;5045978;28;20208;-61
2021/12/09 01:56:11;;;;;;;29.33;17.17;;;;;;;2.75;86.30;96781.84;5047754;28;20208;-62
2021/12/09 01:58:39;;;;;;;31.60;17.67;;;;;;;2.87;85.09;96789.28;5046093;28;20202;-62
2021/12/09 02:01:07;;;;;;;25.27;15.80;;;;;;;2.90;84.83;96786.66;5047547;28;20655;-61
2021/12/09 02:03:35;;;;;;;28.13;16.90;;;;;;;2.94;84.03;96780.63;5047171;28;20649;-62
2021/12/09 02:06:03;;;;;;;32.90;16.80;;;;;;;2.79;83.47;96782.63;5046330;28;20217;-61
2021/12/09 02:08:30;;;;;;;28.37;16.57;;;;;;;2.59;84.14;96775.34;5047482;28;20773;-61
2021/12/09 02:10:58;;;;;;;28.67;17.43;;;;;;;2.30;85.20;96765.66;5044688;28;20603;-60
2021/12/09 02:13:25;;;;;;;32.03;16.83;;;;;;;2.34;86.12;96784.31;5047403;28;20739;-60
2021/12/09 02:15:54;;;;;;;34.17;19.03;;;;;;;2.39;86.29;96785.91;5045765;28;20280;-64
2021/12/09 02:18:23;;;;;;;33.93;19.40;;;;;;;2.31;85.39;96774.16;5047304;28;20212;-62
2021/12/09 02:21:09;;;;;;;31.47;18.83;;;;;;;2.29;85.98;96750.34;5046922;28;20574;-61
2021/12/09 02:23:37;;;;;;;31.57;17.47;;;;;;;2.52;84.72;96784.00;5045937;28;20288;-61
2021/12/09 02:26:04;;;;;;;28.63;17.97;;;;;;;2.64;85.04;96783.75;5047320;28;20229;-60
2021/12/09 02:28:32;;;;;;;23.80;15.67;;;;;;;2.58;83.37;96780.50;5047932;28;20292;-60
2021/12/09 02:31:00;;;;;;;29.17;14.60;;;;;;;2.25;84.59;96785.31;5051319;28;20211;-62
2021/12/09 02:33:27;;;;;;;27.57;16.40;;;;;;;2.07;85.17;96779.69;5050272;28;20208;-60
2021/12/09 02:35:54;;;;;;;28.73;16.23;;;;;;;1.65;86.11;96771.84;5050794;28;20519;-61
2021/12/09 02:38:21;;;;;;;23.37;16.33;;;;;;;1.69;86.05;96799.91;5051223;28;20198;-61
2021/12/09 02:40:50;;;;;;;32.90;17.70;;;;;;;1.77;86.23;96798.06;5049556;28;20280;-60
2021/12/09 02:43:26;;;;;;;27.63;15.80;;;;;;;1.54;87.77;96791.63;5050912;28;20729;-61
2021/12/09 02:45:55;;;;;;;26.13;14.87;;;;;;;1.45;88.29;96789.19;5049183;28;20249;-61
2021/12/09 02:48:23;;;;;;;27.63;15.90;;;;;;;1.38;88.72;96787.56;5051002;28;20206;-62
2021/12/09 02:50:52;;;;;;;31.23;17.53;;;;;;;1.33;88.81;96789.34;5050178;28;20209;-61
2021/12/09 02:53:19;;;;;;;31.00;17.00;;;;;;;1.25;89.63;96783.53;5050087;28;20193;-62
2021/12/09 02:55:47;;;;;;;29.53;17.63;;;;;;;1.14;91.42;96792.16;5051309;28;20204;-61
2021/12/09 02:58:14;;;;;;;28.03;16.83;;;;;;;1.14;91.23;96776.84;5049081;28;20586;-61
2021/12/09 03:01:11;;;;;;;30.07;16.57;;;;;;;1.17;91.19;96767.50;5049411;28;20301;-61
2021/12/09 03:03:47;;;;;;;33.80;16.43;;;;;;;1.18;91.05;96756.41;5049818;28;20208;-61
2021/12/09 03:06:14;;;;;;;30.40;16.87;;;;;;;1.24;91.85;96769.06;5049794;28;20224;-61
2021/12/09 03:08:42;;;;;;;26.60;15.73;;;;;;;1.17;91.76;96746.25;5050679;28;20181;-62
2021/12/09 03:11:13;;;;;;;28.10;16.43;;;;;;;1.35;91.79;96767.22;5048907;28;20201;-60
2021/12/09 03:13:42;;;;;;;29.47;16.87;;;;;;;1.44;90.95;96772.16;5050523;28;20268;-62
2021/12/09 03:16:10;;;;;;;29.77;16.30;;;;;;;1.46;91.29;96770.44;5048990;28;20237;-61
2021/12/09 03:18:44;;;;;;;25.93;15.50;;;;;;;1.67;91.13;96785.44;5050507;28;20201;-63
2021/12/09 03:21:17;;;;;;;28.10;17.23;;;;;;;1.91;89.29;96780.81;5049822;28;20201;-61
2021/12/09 03:23:44;;;;;;;27.20;15.77;;;;;;;2.08;88.57;96791.59;5049010;28;20213;-61
2021/12/09 03:26:13;;;;;;;25.90;15.30;;;;;;;2.08;88.00;96786.50;5050071;28;20352;-62
2021/12/09 03:28:40;;;;;;;27.77;16.00;;;;;;;2.07;87.02;96789.91;5048603;28;20178;-61
2021/12/09 03:31:07;;;;;;;29.87;17.90;;;;;;;2.20;85.83;96796.50;5050103;28;20280;-63
2021/12/09 03:33:34;;;;;;;27.50;16.87;;;;;;;2.13;84.97;96798.31;5048627;28;20209;-62
2021/12/09 03:36:06;;;;;;;28.07;15.43;;;;;;;1.95;84.51;96800.31;5049811;28;20182;-63
2021/12/09 03:38:33;;;;;;;29.07;16.40;;;;;;;1.75;86.29;96812.56;5049735;28;20212;-65
2021/12/09 03:41:02;;;;;;;26.53;16.80;;;;;;;1.57;86.26;96806.00;5047838;28;20198;-63
2021/12/09 03:43:30;;;;;;;34.23;17.53;;;;;;;1.59;86.93;96807.69;5049773;28;20217;-62
2021/12/09 03:45:57;;;;;;;31.90;18.10;;;;;;;0.49;88.18;96669.00;5048044;28;20312;-63
2021/12/09 03:48:29;;;;;;;32.07;16.73;;;;;;;1.49;88.41;96816.34;5049812;28;20653;-63
2021/12/09 03:50:57;;;;;;;30.83;18.37;;;;;;;1.54;88.46;96814.56;5048532;28;20186;-63
2021/12/09 03:53:25;;;;;;;31.17;17.13;;;;;;;1.46;87.24;96824.00;5049305;28;20223;-64
2021/12/09 03:55:53;;;;;;;26.40;18.20;;;;;;;1.45;86.93;96811.28;5049629;28;20707;-64
2021/12/09 03:58:20;;;;;;;24.60;14.67;;;;;;;1.35;87.48;96812.28;5048136;28;20284;-61
2021/12/09 04:00:48;;;;;;;22.70;13.73;;;;;;;1.15;87.15;96821.91;5049588;28;20732;-63
2021/12/09 04:03:17;;;;;;;19.30;12.37;;;;;;;1.05;88.07;96825.44;5047784;28;20677;-61
2021/12/09 04:05:46;;;;;;;23.03;13.57;;;;;;;0.97;88.34;96827.25;5064654;28;20275;-64
2021/12/09 04:08:14;;;;;;;27.33;15.60;;;;;;;0.76;88.98;96823.25;5048483;28;20247;-64
2021/12/09 04:10:41;;;;;;;29.77;16.37;;;;;;;0.64;89.60;96815.69;5048964;28;20720;-63
2021/12/09 04:13:09;;;;;;;24.93;14.93;;;;;;;0.60;90.25;96820.00;5049407;28;20213;-62
2021/12/09 04:15:36;;;;;;;31.07;16.63;;;;;;;0.60;89.48;96816.59;5047740;28;20229;-64
2021/12/09 04:18:04;;;;;;;26.60;15.63;;;;;;;0.49;90.80;96821.81;5049272;28;20198;-62
2021/12/09 04:20:31;;;;;;;26.93;16.97;;;;;;;0.42;90.86;96815.09;5068513;28;20699;-60
2021/12/09 04:22:58;;;;;;;27.17;16.07;;;;;;;0.50;91.42;96815.84;5062088;28;20733;-63
2021/12/09 04:25:26;;;;;;;23.73;14.47;;;;;;;0.54;92.12;96811.56;5048649;28;20201;-61
2021/12/09 04:27:55;;;;;;;24.07;13.90;;;;;;;0.63;91.38;96817.44;5048524;28;20229;-61
2021/12/09 04:30:24;;;;;;;25.60;13.53;;;;;;;0.80;90.65;96822.34;5050876;28;20201;-61
2021/12/09 04:32:53;;;;;;;25.37;14.27;;;;;;;0.93;90.10;96820.50;5056276;28;20236;-61
2021/12/09 04:35:21;;;;;;;30.07;16.77;;;;;;;1.12;89.21;96817.69;5056041;28;20227;-61
2021/12/09 04:37:48;;;;;;;23.90;13.73;;;;;;;1.35;88.80;96820.78;5066697;28;20193;-61
2021/12/09 04:40:16;;;;;;;23.87;13.80;;;;;;;1.52;87.84;96820.56;5068539;28;20185;-63
2021/12/09 04:42:44;;;;;;;24.03;13.33;;;;;;;1.67;87.16;96829.69;5067508;28;20247;-60
2021/12/09 04:45:12;;;;;;;22.23;12.90;;;;;;;1.73;86.28;96834.72;5067972;28;20207;-62
2021/12/09 04:47:40;;;;;;;23.80;14.10;;;;;;;1.85;85.30;96835.38;5068586;28;20225;-64
2021/12/09 04:50:09;;;;;;;20.97;14.70;;;;;;;1.97;84.31;96821.56;5067128;28;20202;-62
2021/12/09 04:52:37;;;;;;;25.87;14.23;;;;;;;1.91;84.29;96819.13;5068538;28;20697;-65
2021/12/09 04:55:07;;;;;;;26.17;13.73;;;;;;;1.76;84.77;96820.19;5066747;28;20684;-60
2021/12/09 04:57:34;;;;;;;19.73;12.73;;;;;;;1.71;84.78;96826.25;5068235;28;20912;-61
2021/12/09 05:00:07;;;;;;;20.47;13.53;;;;;;;1.71;85.70;96827.06;5067387;28;20197;-63
2021/12/09 05:02:56;;;;;;;20.40;13.27;;;;;;;1.82;84.64;96820.09;5067317;28;20232;-62
2021/12/09 05:05:22;;;;;;;23.77;14.77;;;;;;;1.81;84.80;96813.31;5067945;28;20222;-62
2021/12/09 05:07:49;;;;;;;27.97;16.00;;;;;;;1.88;84.34;96831.91;5066395;28;20225;-63
2021/12/09 05:10:17;;;;;;;23.87;15.03;;;;;;;1.81;84.42;96822.69;5067947;28;20193;-60
2021/12/09 05:12:44;;;;;;;26.63;14.87;;;;;;;1.89;84.32;96815.75;5066724;28;20205;-62
2021/12/09 05:15:11;;;;;;;25.30;15.83;;;;;;;1.73;83.37;96809.19;5067756;28;20220;-62
2021/12/09 05:17:38;;;;;;;28.63;17.17;;;;;;;1.63;83.93;96814.41;5067696;28;20727;-62
2021/12/09 05:20:06;;;;;;;28.87;16.67;;;;;;;1.56;83.59;96799.22;5066589;28;20193;-62
2021/12/09 05:22:33;;;;;;;28.50;18.57;;;;;;;1.70;83.65;96821.97;5067637;28;20196;-62
2021/12/09 05:25:00;;;;;;;31.00;17.93;;;;;;;1.40;83.18;96826.66;5066089;28;20185;-63
2021/12/09 05:27:28;;;;;;;33.40;18.90;;;;;;;1.16;84.24;96826.97;5067341;28;20228;-63
2021/12/09 05:30:07;;;;;;;30.50;17.93;;;;;;;1.07;86.20;96828.81;5066151;28;20201;-63
2021/12/09 05:32:34;;;;;;;34.37;17.40;;;;;;;0.96;86.47;96826.38;5066868;28;20185;-63
2021/12/09 05:35:02;;;;;;;37.53;17.83;;;;;;;0.64;87.81;96820.78;5067182;28;20192;-62
2021/12/09 05:37:29;;;;;;;99.60;21.93;;;;;;;0.18;89.05;96827.22;5065944;28;20330;-64
2021/12/09 05:39:59;;;;;;;72.40;22.50;;;;;;;-0.02;90.11;96823.13;5067500;28;20224;-61
2021/12/09 05:42:30;;;;;;;86.33;19.33;;;;;;;-0.09;91.31;96834.22;5065559;28;20232;-62
2021/12/09 05:44:59;;;;;;;70.43;19.13;;;;;;;-0.11;91.70;96825.78;5067063;28;20274;-63
2021/12/09 05:47:26;;;;;;;68.87;16.30;;;;;;;-0.12;91.69;96834.25;5064865;28;20250;-62
2021/12/09 05:49:53;;;;;;;93.00;18.30;;;;;;;-0.07;92.17;96834.22;5066077;28;20193;-62
2021/12/09 05:52:20;;;;;;;81.53;18.03;;;;;;;0.11;91.93;96823.03;5065357;28;20613;-61
2021/12/09 05:54:48;;;;;;;123.27;18.63;;;;;;;-0.02;92.29;96838.41;5065147;28;20201;-61
2021/12/09 05:57:15;;;;;;;60.93;15.37;;;;;;;0.03;92.55;96845.16;5067011;28;20200;-61
2021/12/09 05:59:43;;;;;;;78.40;16.80;;;;;;;0.23;93.01;96854.31;5065461;28;20288;-62
2021/12/09 06:02:12;;;;;;;76.57;20.13;;;;;;;0.25;91.60;96846.69;5066672;28;20274;-61
2021/12/09 06:04:39;;;;;;;37.47;19.87;;;;;;;0.38;92.71;96859.28;5065995;28;20188;-60
2021/12/09 06:07:07;;;;;;;43.17;20.97;;;;;;;0.56;91.18;96854.00;5066274;28;20220;-60
2021/12/09 06:09:34;;;;;;;81.43;29.77;;;;;;;0.89;89.91;96882.56;5066820;28;20209;-64
2021/12/09 06:12:01;;;;;;;52.83;24.67;;;;;;;0.91;89.99;96891.84;5065196;28;20208;-60
2021/12/09 06:14:28;;;;;;;50.43;23.10;;;;;;;1.02;88.66;96902.78;5066958;28;20185;-60
2021/12/09 06:16:55;;;;;;;43.33;20.47;;;;;;;0.95;89.70;96911.34;5065024;28;20193;-62
2021/12/09 06:19:22;;;;;;;48.40;19.73;;;;;;;0.96;88.14;96907.97;5065461;28;20260;-63
2021/12/09 06:21:49;;;;;;;69.27;18.83;;;;;;;1.04;88.06;96908.72;5065687;28;20655;-61
2021/12/09 06:24:21;;;;;;;88.70;18.87;;;;;;;0.89;88.25;96915.69;5066232;28;20296;-61
2021/12/09 06:26:48;;;;;;;54.87;19.70;;;;;;;0.56;89.44;96916.84;5066636;28;20224;-61
2021/12/09 06:29:16;;;;;;;111.07;19.23;;;;;;;0.23;91.28;96920.50;5065041;28;20265;-61
2021/12/09 06:31:43;;;;;;;111.73;19.87;;;;;;;0.02;92.17;96927.47;5066744;28;20197;-60
2021/12/09 06:34:12;;;;;;;93.13;19.70;;;;;;;-0.01;93.04;96924.09;5064956;28;20680;-61
2021/12/09 06:36:41;;;;;;;91.70;19.07;;;;;;;-0.27;93.08;96923.38;5067018;28;20205;-60
2021/12/09 06:39:09;;;;;;;81.63;21.03;;;;;;;-0.19;94.38;96926.75;5065366;28;20242;-60
2021/12/09 06:41:36;;;;;;;99.97;21.97;;;;;;;-0.10;94.57;96929.22;5065415;28;20280;-61
2021/12/09 06:44:03;;;;;;;87.53;22.27;;;;;;;-0.23;93.65;96930.13;5066568;28;20208;-61
2021/12/09 06:46:30;;;;;;;66.67;20.80;;;;;;;-0.15;93.92;96923.34;5065185;28;20216;-61
2021/12/09 06:48:57;;;;;;;63.00;21.27;;;;;;;-0.01;95.11;96915.59;5066618;28;20197;-61
2021/12/09 06:51:25;;;;;;;53.97;20.80;;;;;;;0.16;94.02;96923.13;5065000;28;20224;-61
2021/12/09 06:53:52;;;;;;;39.67;18.97;;;;;;;0.38;94.59;96934.81;5066572;28;20240;-61
2021/12/09 06:56:20;;;;;;;46.37;19.33;;;;;;;0.65;93.88;96924.41;5065532;28;20201;-61
2021/12/09 06:58:47;;;;;;;53.37;19.13;;;;;;;0.99;92.07;96919.84;5066069;28;20201;-61
2021/12/09 07:01:15;;;;;;;40.47;20.27;;;;;;;1.27;91.88;96918.66;5066114;28;20285;-61
2021/12/09 07:03:43;;;;;;;36.33;18.83;;;;;;;1.42;90.83;96898.91;5064437;28;20201;-61
2021/12/09 07:06:11;;;;;;;32.93;19.40;;;;;;;1.67;89.05;96907.09;5064491;28;20221;-61
2021/12/09 07:08:48;;;;;;;34.57;18.07;;;;;;;1.84;88.45;96889.84;5064603;28;20225;-61
2021/12/09 07:11:19;;;;;;;26.07;15.60;;;;;;;2.01;88.18;96895.56;5066068;28;20200;-61
2021/12/09 07:13:47;;;;;;;30.17;16.97;;;;;;;2.06;88.26;96893.75;5065845;28;20220;-61
2021/12/09 07:16:15;;;;;;;46.40;19.50;;;;;;;2.11;88.47;96863.91;5068395;28;20798;-61
2021/12/09 07:18:42;;;;;;;31.53;17.90;;;;;;;2.22;87.24;96867.13;5069743;28;20200;-60
2021/12/09 07:21:10;;;;;;;34.17;19.90;;;;;;;2.38;87.88;96875.38;5068256;28;20224;-61
2021/12/09 07:23:38;;;;;;;38.37;18.83;;;;;;;2.38;87.23;96883.03;5069758;28;20761;-61
2021/12/09 07:26:05;;;;;;;36.50;19.10;;;;;;;2.41;87.08;96876.16;5068008;28;20181;-61
2021/12/09 07:28:32;;;;;;;37.77;19.67;;;;;;;2.63;87.01;96881.78;5069411;28;20637;-61
2021/12/09 07:31:00;;;;;;;48.33;23.83;;;;;;;2.70;86.89;96877.41;5068504;28;20712;-61
2021/12/09 07:33:27;;;;;;;51.83;23.87;;;;;;;2.76;86.96;96890.88;5068242;28;20197;-61
2021/12/09 07:35:55;;;;;;;54.53;23.50;;;;;;;2.67;87.37;96891.06;5067594;28;20216;-64
2021/12/09 07:38:22;;;;;;;46.23;24.00;;;;;;;2.62;86.77;96886.91;5067569;28;20304;-59
2021/12/09 07:40:49;;;;;;;43.70;24.20;;;;;;;2.67;85.96;96897.88;5069183;28;20216;-61
2021/12/09 07:43:16;;;;;;;45.53;24.07;;;;;;;2.63;85.97;96886.88;5067485;28;20312;-61
2021/12/09 07:45:43;;;;;;;46.70;24.20;;;;;;;2.71;86.09;96897.81;5069095;28;20253;-61
2021/12/09 07:48:11;;;;;;;56.23;25.13;;;;;;;2.79;85.74;96908.75;5068427;28;20228;-61
2021/12/09 07:50:38;;;;;;;62.90;27.90;;;;;;;2.78;85.82;96904.50;5067938;28;20199;-62
2021/12/09 07:53:06;;;;;;;60.53;27.57;;;;;;;2.72;85.73;96904.59;5069049;28;20620;-61
2021/12/09 07:55:33;;;;;;;56.37;27.70;;;;;;;2.52;86.42;96909.22;5065428;28;20589;-60
2021/12/09 07:58:00;;;;;;;60.47;28.27;;;;;;;2.37;86.94;96906.94;5068685;28;20291;-61
2021/12/09 08:00:30;;;;;;;62.40;27.53;;;;;;;2.51;87.13;96906.69;5067075;28;20353;-61
2021/12/09 08:02:59;;;;;;;60.77;26.30;;;;;;;2.69;86.45;96906.38;5068692;28;20287;-61
2021/12/09 08:05:28;;;;;;;48.53;23.77;;;;;;;2.66;86.00;96904.69;5067894;28;20262;-62
2021/12/09 08:07:55;;;;;;;80.07;29.63;;;;;;;2.34;86.59;96918.03;5067566;28;20274;-59
2021/12/09 08:10:23;;;;;;;67.63;28.87;;;;;;;2.27;87.52;96913.03;5068194;28;20676;-61
2021/12/09 08:12:51;;;;;;;60.33;27.63;;;;;;;2.36;87.63;96895.00;5066638;28;20695;-60
2021/12/09 08:15:33;;;;;;;65.00;29.43;;;;;;;2.72;87.76;96924.22;5067128;28;20703;-61
2021/12/09 08:18:04;;;;;;;58.27;27.80;;;;;;;2.73;86.70;96915.66;5066644;28;20270;-62
2021/12/09 08:20:32;;;;;;;58.27;26.93;;;;;;;2.72;86.13;96912.25;5068104;28;20280;-62
2021/12/09 08:23:00;;;;;;;62.40;29.77;;;;;;;2.68;86.08;96890.19;5068306;28;20221;-64
2021/12/09 08:25:27;;;;;;;79.87;32.87;;;;;;;2.55;87.03;96904.06;5066603;28;20610;-62
2021/12/09 08:27:54;;;;;;;85.67;34.80;;;;;;;2.86;86.86;96912.91;5067876;28;20630;-62
2021/12/09 08:30:25;;;;;;;82.20;36.03;;;;;;;2.79;87.19;96905.34;5064877;28;20529;-61
2021/12/09 08:33:12;;;;;;;88.00;36.87;;;;;;;2.76;87.25;96908.78;5067890;28;20201;-64
2021/12/09 08:35:39;;;;;;;85.67;38.83;;;;;;;2.75;87.39;96908.81;5067427;28;20363;-62
2021/12/09 08:38:07;;;;;;;81.63;36.30;;;;;;;2.86;87.86;96912.03;5067086;28;20209;-61
2021/12/09 08:40:35;;;;;;;78.77;36.37;;;;;;;3.01;85.53;96897.25;5067966;28;20189;-61
2021/12/09 08:43:04;;;;;;;94.53;38.43;;;;;;;2.97;85.54;96895.63;5065568;28;20237;-62
2021/12/09 08:45:31;;;;;;;78.37;36.77;;;;;;;3.10;86.03;96897.09;5049719;28;20556;-62
2021/12/09 08:47:58;;;;;;;97.30;40.70;;;;;;;3.32;85.38;96887.25;5066024;28;20238;-62
2021/12/09 08:50:32;;;;;;;89.70;40.17;;;;;;;3.07;85.75;96881.78;5067286;28;20282;-64
2021/12/09 08:53:07;;;;;;;79.07;38.17;;;;;;;3.28;85.92;96871.13;5065857;28;20224;-62
2021/12/09 08:55:35;;;;;;;74.40;34.03;;;;;;;3.61;85.24;96873.88;5066433;28;20659;-61
2021/12/09 08:58:04;;;;;;;82.87;37.07;;;;;;;3.79;84.26;96868.38;5067821;28;20208;-62
2021/12/09 09:00:32;;;;;;;97.00;43.17;;;;;;;3.78;84.03;96861.56;5065481;28;20191;-62
2021/12/09 09:03:00;;;;;;;117.37;47.07;;;;;;;3.99;82.76;96861.06;5067418;28;20633;-62
2021/12/09 09:05:29;;;;;;;116.70;47.17;;;;;;;4.00;82.85;96855.91;5066194;28;20252;-62
2021/12/09 09:07:56;;;;;;;108.33;46.63;;;;;;;4.13;82.72;96853.91;5066539;28;20292;-63
2021/12/09 09:10:30;;;;;;;112.90;47.73;;;;;;;4.06;82.95;96853.19;5067010;28;20194;-61
2021/12/09 09:12:57;;;;;;;107.57;43.17;;;;;;;4.11;83.70;96853.09;5065607;28;20295;-64
2021/12/09 09:15:26;;;;;;;120.63;52.90;;;;;;;4.20;82.36;96845.22;5066963;28;20679;-61
2021/12/09 09:17:53;;;;;;;105.27;45.37;;;;;;;4.16;82.90;96843.59;5065455;28;20189;-65
2021/12/09 09:20:26;;;;;;;102.33;44.47;;;;;;;4.30;82.23;96849.22;5067244;28;20288;-60
2021/12/09 09:22:53;;;;;;;104.30;45.70;;;;;;;4.52;82.14;96841.84;5064126;28;20223;-61
2021/12/09 09:25:29;;;;;;;112.43;44.80;;;;;;;4.40;81.80;96834.44;5065989;28;20302;-61
2021/12/09 09:28:00;;;;;;;109.47;45.67;;;;;;;4.49;81.69;96835.06;5066961;28;20248;-61
2021/12/09 09:30:35;;;;;;;117.40;45.53;;;;;;;4.32;82.18;96819.28;5065785;28;20752;-61
2021/12/09 09:33:07;;;;;;;115.03;47.83;;;;;;;4.37;83.28;96832.81;5066881;28;20637;-61
2021/12/09 09:35:36;;;;;;;107.27;48.10;;;;;;;4.38;83.12;96821.69;5065691;28;20682;-62
2021/12/09 09:38:04;;;;;;;107.20;45.63;;;;;;;4.51;82.87;96835.03;5066212;28;20287;-62
2021/12/09 09:41:05;;;;;;;89.53;41.17;;;;;;;4.51;83.69;96825.63;5066491;28;20257;-61
2021/12/09 09:46:13;;;;;;;87.07;39.17;;;;;;;4.53;82.17;96821.31;5066570;28;20192;-62
2021/12/09 09:48:43;;;;;;;85.13;39.40;;;;;;;4.56;82.36;96825.50;5064296;28;20325;-63
2021/12/09 09:51:11;;;;;;;86.90;37.20;;;;;;;4.61;82.42;96814.25;5066318;28;20832;-61
2021/12/09 09:53:41;;;;;;;75.83;35.20;;;;;;;4.31;83.31;96817.56;5066495;28;20581;-61
2021/12/09 09:56:15;;;;;;;86.47;39.13;;;;;;;4.49;83.14;96819.66;5063425;28;20945;-62
2021/12/09 09:58:45;;;;;;;56.40;29.33;;;;;;;4.49;82.46;96822.22;5066815;28;20226;-61
2021/12/09 10:01:13;;;;;;;64.77;34.33;;;;;;;4.62;82.02;96818.47;5064823;28;20278;-61
2021/12/09 10:03:45;;;;;;;64.77;34.17;;;;;;;4.82;81.25;96811.09;5066675;28;20311;-64
2021/12/09 10:06:15;;;;;;;63.20;33.00;;;;;;;5.00;80.99;96803.78;5065942;28;20256;-64
2021/12/09 10:08:43;;;;;;;86.13;43.93;;;;;;;4.45;81.77;96810.38;5064788;28;20230;-61
2021/12/09 10:11:10;;;;;;;88.57;48.47;;;;;;;4.61;81.14;96791.16;5066279;28;20643;-61
2021/12/09 10:13:39;;;;;;;62.50;36.93;;;;;;;4.79;81.29;96790.66;5064920;28;20256;-61
2021/12/09 10:16:21;;;;;;;60.50;33.13;;;;;;;4.94;81.40;96785.13;5065025;28;20225;-62
2021/12/09 10:18:51;;;;;;;43.20;26.77;;;;;;;5.16;80.93;96779.38;5065187;28;20653;-61
2021/12/09 10:21:24;;;;;;;48.77;26.53;;;;;;;5.16;80.63;96789.63;5065308;28;20194;-61
2021/12/09 10:24:04;;;;;;;42.60;23.40;;;;;;;5.45;80.18;96787.91;5065124;28;20689;-62
2021/12/09 10:26:37;;;;;;;31.00;18.13;;;;;;;5.53;78.31;96775.69;5064733;28;20196;-61
2021/12/09 10:29:07;;;;;;;33.27;17.83;;;;;;;5.58;78.96;96794.38;5066457;28;20247;-63
2021/12/09 10:31:57;;;;;;;31.87;17.67;;;;;;;5.66;79.15;96789.00;5047182;28;20190;-63
2021/12/09 10:37:25;;;;;;;27.23;16.80;;;;;;;5.45;79.79;96792.19;5065391;28;20626;-61
2021/12/09 10:40:00;;;;;;;29.87;17.20;;;;;;;5.41;80.97;96795.75;5064301;28;20260;-62
2021/12/09 10:42:38;;;;;;;35.27;18.83;;;;;;;5.28;80.73;96799.53;5065403;28;20378;-61
2021/12/09 10:45:09;;;;;;;30.43;18.27;;;;;;;4.85;82.45;96795.63;5065229;28;20200;-61
2021/12/09 10:48:03;;;;;;;35.70;18.97;;;;;;;4.60;84.79;96807.44;5029590;28;20230;-61
2021/12/09 10:53:28;;;;;;;40.20;22.77;;;;;;;4.61;85.54;96786.03;5068404;28;20191;-62
2021/12/09 10:55:55;;;;;;;40.80;22.17;;;;;;;4.76;85.76;96777.91;5068881;28;20191;-61
2021/12/09 10:58:26;;;;;;;45.40;23.37;;;;;;;4.41;87.33;96766.94;5068049;28;20197;-62
2021/12/09 11:00:55;;;;;;;43.83;24.30;;;;;;;4.32;88.17;96773.13;5067637;28;20251;-60
2021/12/09 11:03:25;;;;;;;47.90;25.80;;;;;;;4.57;87.46;96760.53;5068953;28;20190;-61
2021/12/09 11:06:09;;;;;;;49.37;25.90;;;;;;;4.55;87.49;96760.56;5067403;28;20723;-61
2021/12/09 11:08:49;;;;;;;50.10;26.03;;;;;;;4.75;87.22;96758.31;5068907;28;20274;-61
2021/12/09 11:11:18;;;;;;;51.47;26.40;;;;;;;5.10;86.21;96756.44;5067283;28;20198;-60
2021/12/09 11:14:13;;;;;;;48.83;26.60;;;;;;;5.42;85.09;96735.81;5067675;28;20215;-61
2021/12/09 11:16:48;;;;;;;36.37;20.00;;;;;;;5.57;83.46;96735.31;5067147;28;20282;-62
2021/12/09 11:19:47;;;;;;;30.87;18.53;;;;;;;5.62;83.63;96747.16;5068880;28;20578;-62
2021/12/09 11:22:11;;;;;;;33.43;18.40;;;;;;;5.89;82.70;96730.06;5067956;28;20214;-62
2021/12/09 11:24:44;;;;;;;29.90;16.37;;;;;;;6.09;81.91;96740.53;5068200;28;20264;-60
2021/12/09 11:27:14;;;;;;;32.00;18.80;;;;;;;5.95;82.77;96731.59;5067349;28;20234;-61
2021/12/09 11:29:48;;;;;;;36.77;21.30;;;;;;;5.79;84.48;96736.31;5068745;28;20270;-61
2021/12/09 11:32:52;;;;;;;35.97;20.80;;;;;;;5.64;84.47;96732.53;5050818;28;20647;-63
2021/12/09 11:35:26;;;;;;;33.80;20.13;;;;;;;5.42;85.17;96721.22;5066964;28;20290;-63
2021/12/09 11:40:38;;;;;;;50.83;30.10;;;;;;;5.30;85.91;96708.78;5067421;28;20787;-63
2021/12/09 11:43:07;;;;;;;51.83;28.70;;;;;;;5.42;85.57;96710.97;5068395;28;20329;-64
2021/12/09 11:45:40;;;;;;;48.20;27.83;;;;;;;5.53;86.37;96703.78;5067530;28;20253;-61
2021/12/09 11:48:10;;;;;;;50.03;28.70;;;;;;;5.57;85.91;96697.66;5067193;28;20233;-62